»·PEaware :: JBU15 KLAS-KLAX

JBU15 :: KLAS-KLAX

FLIGHT INFORMATION

Flight Status: Arrived
Operator:
JetBlue Airways
More flights by this operator :: More flights under this callsign
Pilot: Taylor M. (19061)
Aircraft: AIRBUS A320
(A320)
More flights by this aircraft type
Origin: KLAS McCarran Intl
United States
Destination: KLAX Los Angeles Intl
United States
More flights between these airports :: More routes between these airports
Route: +BOACH8 RIKII SHTNR ANJLL4
File this flight plan on PilotEdge
Remarks: PBN / A1B1C1D1O1S1 NAV / RNVD1E2A1 REG / N320SB
Altitude:
(Current/Filed)
30,000ft
Speed:
(Current/Filed)
421kts
Departed: 21-Jul-18 04:45 PM
Arrived: 21-Jul-18 05:29 PM
Distance/Time
Traveled:
205nm/0:43
Distance/Time
To Go:
Arrived

Flight Plot

Page will automatically refresh every two minutes.

Flight plan parsing failed; only flown route is shown


Map Options




Map Legend


Flown Route
Filed Route
Departure Airport
Arrival Airport
Navaid (VOR, NDB)
Fix

Horizontal Profiles

Position Reports

Time Latitude Longitude Heading Altitude Ground
Speed
21-Jul-18 16:21 36.080309 -115.139348 315 2073ft 0kts
21-Jul-18 16:22 36.080309 -115.139348 315 2073ft 0kts
21-Jul-18 16:23 36.080309 -115.139348 315 2073ft 0kts
21-Jul-18 16:24 36.080309 -115.139348 315 2073ft 0kts
21-Jul-18 16:25 36.080309 -115.139348 315 2073ft 0kts
21-Jul-18 16:26 36.080309 -115.139348 315 2073ft 0kts
21-Jul-18 16:27 36.080309 -115.139348 315 2073ft 0kts
21-Jul-18 16:28 36.080309 -115.139348 315 2073ft 0kts
21-Jul-18 16:29 36.080309 -115.139348 315 2073ft 0kts
21-Jul-18 16:30 36.080310 -115.139348 315 2073ft 0kts
21-Jul-18 16:31 36.080310 -115.139348 315 2073ft 0kts
21-Jul-18 16:32 36.080141 -115.139135 314 2072ft 3kts
21-Jul-18 16:33 36.079790 -115.138284 277 2070ft 0kts
21-Jul-18 16:34 36.079790 -115.138284 277 2070ft 0kts
21-Jul-18 16:35 36.079790 -115.138284 277 2070ft 0kts
21-Jul-18 16:36 36.079790 -115.138284 277 2070ft 0kts
21-Jul-18 16:37 36.079771 -115.138515 241 2071ft 1kts
21-Jul-18 16:38 36.078276 -115.141767 261 2086ft 17kts
21-Jul-18 16:39 36.077558 -115.144325 271 2095ft 4kts
21-Jul-18 16:40 36.077748 -115.147398 277 2105ft 7kts
21-Jul-18 16:41 36.078018 -115.151054 274 2117ft 12kts
21-Jul-18 16:42 36.078010 -115.155637 269 2135ft 11kts
21-Jul-18 16:43 36.078044 -115.159458 269 2148ft 7kts
21-Jul-18 16:44 36.077657 -115.161218 194 2155ft 7kts
21-Jul-18 16:45 36.076847 -115.161301 181 2157ft 13kts
21-Jul-18 16:46 36.076981 -115.131524 89 2498ft 172kts
21-Jul-18 16:47 36.076199 -115.069989 91 4918ft 202kts
21-Jul-18 16:48 36.075770 -114.987301 93 6734ft 275kts
21-Jul-18 16:49 36.022398 -114.928454 159 8393ft 287kts
21-Jul-18 16:50 35.944998 -114.922233 216 10877ft 318kts
21-Jul-18 16:51 35.878695 -115.003426 223 12347ft 367kts
21-Jul-18 16:52 35.809030 -115.093264 229 14570ft 381kts
21-Jul-18 16:53 35.743139 -115.194968 228 16696ft 391kts
21-Jul-18 16:54 35.667994 -115.289108 199 18434ft 395kts
21-Jul-18 16:55 35.559891 -115.299617 180 20151ft 400kts
21-Jul-18 16:56 35.455783 -115.337825 209 21722ft 414kts
21-Jul-18 16:57 35.359453 -115.408066 208 23147ft 421kts
21-Jul-18 16:58 35.259837 -115.480249 208 24725ft 421kts
21-Jul-18 16:59 35.160415 -115.552100 208 26375ft 418kts
21-Jul-18 17:00 35.074445 -115.642144 224 28073ft 415kts
21-Jul-18 17:01 34.998354 -115.739367 223 29623ft 409kts
21-Jul-18 17:02 34.919417 -115.839891 222 30169ft 428kts
21-Jul-18 17:03 34.841371 -115.939001 222 30155ft 451kts
21-Jul-18 17:04 34.757306 -116.045504 222 30155ft 452kts
21-Jul-18 17:05 34.673086 -116.152806 222 30154ft 446kts
21-Jul-18 17:06 34.589217 -116.259279 222 30135ft 445kts
21-Jul-18 17:07 34.505107 -116.365719 222 29568ft 447kts
21-Jul-18 17:08 34.421745 -116.473678 230 28029ft 449kts
21-Jul-18 17:09 34.365146 -116.602770 240 26484ft 425kts
21-Jul-18 17:10 34.322598 -116.706197 241 25704ft 393kts
21-Jul-18 17:11 34.280263 -116.811789 242 23988ft 384kts
21-Jul-18 17:12 34.235713 -116.922177 242 22147ft 376kts
21-Jul-18 17:13 34.197202 -117.034701 250 20292ft 368kts
21-Jul-18 17:14 34.165973 -117.149989 251 18167ft 368kts
21-Jul-18 17:15 34.134387 -117.264930 250 16160ft 362kts
21-Jul-18 17:16 34.103671 -117.376608 252 14322ft 353kts
21-Jul-18 17:17 34.076249 -117.486263 251 12744ft 337kts
21-Jul-18 17:18 34.041473 -117.586686 245 11165ft 325kts
21-Jul-18 17:19 34.008309 -117.680136 252 10039ft 294kts
21-Jul-18 17:20 33.997998 -117.774332 261 8809ft 284kts
21-Jul-18 17:21 33.988978 -117.866581 261 7449ft 279kts
21-Jul-18 17:22 33.980437 -117.953775 261 6341ft 246kts
21-Jul-18 17:23 33.975171 -118.032111 261 5961ft 243kts
21-Jul-18 17:24 33.965592 -118.112063 259 4453ft 231kts
21-Jul-18 17:25 33.958809 -118.177337 261 3479ft 185kts
21-Jul-18 17:26 33.953143 -118.231216 261 2569ft 164kts
21-Jul-18 17:27 33.947865 -118.281806 262 1762ft 140kts
21-Jul-18 17:28 33.943239 -118.326364 264 1060ft 139kts
21-Jul-18 17:29 33.938629 -118.370849 264 334ft 129kts
21-Jul-18 17:30 33.936115 -118.398026 282 114ft 18kts
21-Jul-18 17:31 33.936648 -118.400023 274 118ft 0kts
21-Jul-18 17:32 33.936657 -118.400170 274 118ft 0kts
21-Jul-18 17:33 33.936491 -118.402248 262 121ft 16kts
21-Jul-18 17:34 33.937933 -118.404365 337 123ft 10kts
21-Jul-18 17:35 33.940032 -118.405544 352 124ft 12kts

Navigation Log

Ident Type
Flight plan parsing failed, navigation log unavailable